Alpha, California Weather observations

Data are for observation ending at time listed.
 Day   Time    Ave.   Ave.  Ave.  Vector   Max.   Stn.    Total    Solar   Ave.   Snow 
  of    of     Air    Rel.  Wind   Wind    Wind   Baro.  Precip.   Rad.    Soil   Depth
Year   Day     Temp.  Hum.  Speed  Dir.    Gust   Pres.                    Temp.       
2014   (PST)    F      %     mph   deg.    mph     mb.     in.     W/m2     F      in. 
---------------------------------------------------------------------------------------  
 204    0:00   53.0    70   12.8   130     23.0   791.9    0.00       0    999.0   13.9
 204    0:10   53.0    69   11.5   128     20.8   791.9    0.00       0    999.0   13.4
 204    0:20   53.1    66   11.6   128     20.4   791.9    0.00       0    999.0   13.6
 204    0:30   53.4    62   11.7   130     23.8   791.9    0.00       0    999.0   13.9
 204    0:40   53.4    59   10.0   129     22.7   791.9    0.00       0    999.0   14.0
 204    0:50   53.7    58   12.2   119     24.2   791.9    0.00       0    999.0   13.9
 204    1:00   53.7    57   10.4   130     21.5   791.9    0.00       0    999.0   43.4
 204    1:10   53.8    56   10.8   127     22.4   791.8    0.00       0    999.0  118.3
 204    1:20   53.6    56   10.9   123     20.6   791.8    0.00       0    999.0  161.7
 204    1:30   53.6    55   11.0   132     22.3   791.8    0.00       0    999.0  161.8
 204    1:40   53.3    56   10.2   128     22.5   791.8    0.00       0    999.0  161.8
 204    1:50   53.5    53   10.8   131     23.2   791.8    0.00       0    999.0  161.8
 204    2:00   53.5    54   10.9   130     18.3   791.7    0.00       0    999.0  161.8
 204    2:10   53.5    53   11.6   134     22.3   791.7    0.00       0    999.0  161.9
 204    2:20   53.7    50   11.7   127     26.5   791.6    0.00       0    999.0  161.7
 204    2:30   53.7    50    9.1   132     21.9   791.5    0.00       0    999.0  161.9
 204    2:40   53.8    49   10.5   129     25.9   791.5    0.00       0    999.0  161.9
 204    2:50   53.9    48   11.8   128     24.6   791.5    0.00       0    999.0  162.0
 204    3:00   54.1    48   12.4   125     27.8   791.5    0.00       0    999.0  162.0
 204    3:10   53.6    50   10.0   130     24.7   791.6    0.00       0    999.0  162.1
 204    3:20   54.0    48   12.7   126     21.5   791.6    0.00       0    999.0  162.0
 204    3:30   53.8    49    9.8   129     20.3   791.6    0.00       0    999.0  162.1
 204    3:40   53.6    50    9.7   126     18.9   791.6    0.00       0    999.0  162.1
 204    3:50   53.5    50    9.7   124     23.5   791.6    0.00       0    999.0  161.9
 204    4:00   53.7    49    8.8   130     17.3   791.6    0.00       0    999.0  161.9
 204    4:10   53.5    50    9.2   127     19.9   791.6    0.00       0    999.0  162.1
 204    4:20   53.4    49    7.4   131     15.1   791.7    0.00       0    999.0  161.7
 204    4:30   53.0    51    8.0   136     13.4   791.8    0.00       0    999.0  161.6
 204    4:40   53.2    50    8.4   131     19.0   791.8    0.00       0    999.0  161.7
 204    4:50   53.4    49    8.8   132     18.9   791.8    0.00       2    999.0  161.9
 204    5:00   53.5    49   10.6   125     22.3   791.9    0.00       2    999.0  162.1
 204    5:10   53.3    49    8.3   132     17.2   791.9    0.00       5    999.0  162.2
 204    5:20   53.0    50    8.4   135     23.0   791.9    0.00      12    999.0  162.1
 204    5:30   53.2    49    8.3   129     19.9   792.0    0.00       9    999.0  162.1
 204    5:40   53.1    49    8.9   135     15.9   792.1    0.00      10    999.0  162.2
 204    5:50   53.1    49   10.2   138     22.4   792.1    0.00      43    999.0  162.1
 204    6:00   54.0    46   10.6   133     19.7   792.1    0.00      45    999.0  161.3
 204    6:10   54.3    45   10.7   131     18.3   792.2    0.00      47    999.0  161.7
 204    6:20   54.2    44   11.0   138     21.9   792.3    0.00      30    999.0  161.9
 204    6:30   54.4    44    9.9   135     20.2   792.5    0.00      68    999.0  162.0
 204    6:40   54.4    42    9.7   138     18.6   792.6    0.00      38    999.0  162.0
 204    6:50   54.5    44    9.3   134     16.7   792.7    0.00      24    999.0  162.0
 204    7:00   54.7    43    8.8   138     14.9   792.7    0.00      48    999.0  162.0
 204    7:10   55.1    42    9.7   133     17.5   792.8    0.00     139    999.0  161.9
 204    7:20   55.7    39   11.0   133     20.3   792.8    0.00     289    999.0  162.0
 204    7:30   56.4    39   10.3   132     17.9   792.9    0.00     316    999.0  162.0
 204    7:40   56.7    39   10.5   134     20.8   792.9    0.00     341    999.0  161.6
 204    7:50   57.3    40    9.8   137     17.8   792.9    0.00     366    999.0  161.2
 204    8:00   57.5    39   10.1   145     19.3   792.9    0.00     391    999.0  161.9
 204    8:10   57.8    39   12.8   140     22.6   793.0    0.00     415    999.0  161.7
 204    8:20   57.8    38   12.5   143     19.9   792.9    0.00     438    999.0  161.8
 204    8:30   58.1    40   12.2   144     21.9   792.8    0.00     462    999.0  162.0
 204    8:40   58.5    41   12.2   142     20.0   792.9    0.00     484    999.0  161.9
 204    8:50   58.9    41   11.9   143     20.5   792.9    0.00     505    999.0  161.6
 204    9:00   58.8    42   13.9   144     24.7   792.9    0.00     526    999.0  161.8
 204    9:10   59.6    42   10.4   154     18.6   792.9    0.00     546    999.0  161.7
 204    9:20   59.8    41   10.8   145     19.9   792.9    0.00     566    999.0  161.7
 204    9:30   60.0    41   14.3   139     22.8   792.9    0.00     582    999.0  162.0
 204    9:40   60.2    40   14.2   143     24.3   793.0    0.00     598    999.0  161.9
 204    9:50   60.6    38   11.6   146     18.3   793.0    0.00     615    999.0  161.9
 204   10:00   61.3    38    8.9   143     17.5   793.1    0.00     628    999.0  161.8
 204   10:10   61.4    36    9.7   146     19.6   793.2    0.00     641    999.0  161.6
 204   10:20   62.3    36    7.5   161     19.4   793.2    0.00     654    999.0  161.8
 204   10:30   62.6    36    6.6   164     12.6   793.2    0.00     664    999.0  161.8
 204   10:40   62.9    36    4.7   181     13.1   793.2    0.00     674    999.0  161.7
 204   10:50   63.0    36    4.8   185     12.1   793.2    0.00     684    999.0  161.8
 204   11:00   63.3    36    3.6   210     10.3   793.2    0.00     692    999.0  161.8
 204   11:10   63.7    37    4.6   170     11.0   793.2    0.00     701    999.0  161.8
 204   11:20   63.5    38    4.2   181     11.0   793.1    0.00     706    999.0  161.9
 204   11:30   64.4    40    4.3   180     11.2   793.1    0.00     710    999.0  161.9
 204   11:40   63.8    39    5.0   187     12.6   793.0    0.00     714    999.0  161.9
 204   11:50   63.2    38    4.8   189     12.3   793.0    0.00     718    999.0  161.8
 204   12:00   63.6    34    5.9   179     12.7   793.0    0.00     719    999.0  161.8
 204   12:10   64.3    33    4.5   191     11.6   793.0    0.00     720    999.0  161.8
 204   12:20   65.2    31    4.3   183     13.2   793.1    0.00     718    999.0  161.9
 204   12:30   64.9    32    4.8   178     13.3   793.0    0.00     715    999.0  161.9
 204   12:40   64.1    30    5.7   193     13.9   793.0    0.00     711    999.0  161.9
 204   12:50   64.7    29    4.3   189      9.5   793.1    0.00     707    999.0  161.9
 204   13:00   65.7    31    4.1   174     11.7   793.1    0.00     703    999.0  162.0
 204   13:10   65.6    31    4.8   176     10.3   793.1    0.00     695    999.0  161.9
 204   13:20   65.5    34    4.8   178     11.4   793.0    0.00     686    999.0  161.9
 204   13:30   66.2    31    3.8   184      9.9   793.0    0.00     676    999.0  161.9
 204   13:40   65.9    35    4.4   191     12.7   792.9    0.00     665    999.0  161.9
 204   13:50   65.6    39    4.0   193      9.6   792.9    0.00     652    999.0  161.9
 204   14:00   65.3    40    3.9   201     11.2   792.9    0.00     639    999.0  161.9
 204   14:10   65.1    42    4.3   178     14.0   792.8    0.00     591    999.0  162.0
 204   14:20   64.7    43    3.6   209     12.1   792.7    0.00     262    999.0  161.9
 204   14:30   64.4    44    4.1   226      9.7   792.6    0.00     248    999.0  161.9
 204   14:40   64.4    44    4.4   208     10.7   792.5    0.00     175    999.0  161.7
 204   14:50   64.1    45    4.0   211     10.8   792.5    0.00     366    999.0  160.3
 204   15:00   64.0    43    4.5   205     13.0   792.5    0.00      80    999.0  159.7
 204   15:10   63.3    45    3.4   213     10.3   792.4    0.00     262    999.0  159.0
 204   15:20   63.1    46    4.2   218     11.2   792.4    0.00      73    999.0  142.4
 204   15:30   63.1    46    3.7   202     10.8   792.3    0.00      28    999.0  128.4
 204   15:40   63.4    45    3.7   212     10.7   792.3    0.00      46    999.0   28.7
 204   15:50   62.9    45    4.4   222     10.6   792.3    0.00      21    999.0   13.9
 204   16:00   62.4    47    3.4   206      8.9   792.3    0.00      21    999.0   29.7
 204   16:10   62.9    44    3.8   198      9.2   792.3    0.00      24    999.0   14.0
 204   16:20   63.2    46    2.8   235      9.6   792.2    0.00     219    999.0   14.2
 204   16:30   62.8    46    4.2   218     11.4   792.1    0.00     119    999.0   13.8
 204   16:40   62.1    46    3.8   212      9.2   792.0    0.00      30    999.0   13.8
 204   16:50   62.4    47    3.3   217      7.5   791.9    0.00     227    999.0   28.6
 204   17:00   62.1    47    3.7   219      7.8   791.9    0.00     266    999.0   13.9
 204   17:10   61.4    48    3.6   221      9.7   791.8    0.00     241    999.0   87.1
 204   17:20   61.6    48    2.9   245      8.4   791.9    0.00     216    999.0  161.6
 204   17:30   61.7    48    2.6   252      6.6   791.8    0.00     192    999.0  160.7
 204   17:40   61.2    47    2.7   236     11.9   791.8    0.00     168    999.0  143.3
 204   17:50   60.9    46    2.6   264      7.1   791.8    0.00     145    999.0   56.1
 204   18:00   60.3    47    2.5   258      5.6   791.9    0.00     123    999.0   84.7
 204   18:10   59.6    48    2.2   269      5.3   791.8    0.00      91    999.0   42.7
 204   18:20   58.2    50    2.4   273      7.3   791.8    0.00      46    999.0  160.4
 204   18:30   57.6    50    2.3   265      5.0   791.8    0.00      49    999.0  161.9
 204   18:40   56.9    51    2.3   235      6.6   791.8    0.00      17    999.0  162.0
 204   18:50   56.6    51    2.1   275      5.2   791.7    0.00      11    999.0  161.7
 204   19:00   55.9    51    1.3   288      4.2   791.7    0.00       8    999.0  116.6
 204   19:10   55.3    52    1.5   281      3.8   791.8    0.00       5    999.0   74.7
 204   19:20   54.7    52    0.7   292      3.8   791.8    0.00       3    999.0  161.9
 204   19:30   54.0    52    0.7   290      2.7   791.8    0.00       1    999.0  161.9
 204   19:40   53.8    51    1.3   249      3.9   791.7    0.00       0    999.0  161.9
 204   19:50   53.8    52    1.1   250      2.6   791.8    0.00       0    999.0  161.9
 204   20:00   53.6    52    1.2   253      2.8   791.7    0.00       0    999.0  103.7
 204   20:10   53.6    51    1.6   226      5.1   791.8    0.00       0    999.0  161.7
 204   20:20   53.5    51    0.8   241      3.9   791.8    0.00       0    999.0  102.8
 204   20:30   53.3    51    0.6   233      2.3   791.8    0.00       0    999.0   17.1
 204   20:40   53.4    51    1.3   209      2.6   791.9    0.00       0    999.0   75.0
 204   20:50   53.8    49    1.5   196      2.6   791.8    0.00       0    999.0   45.9
 204   21:00   53.8    46    2.0   176      3.2   791.8    0.00       0    999.0   16.3
 204   21:10   54.0    44    1.5   151      2.8   791.8    0.00       0    999.0   16.4
 204   21:20   53.7    44    1.4   134      2.5   791.8    0.00       0    999.0   75.2
 204   21:30   53.7    46    1.7   120      2.9   791.8    0.00       0    999.0  161.4
 204   21:40   53.9    45    1.6   123      2.9   791.7    0.00       0    999.0  160.5
 204   21:50   53.7    46    0.9   120      1.6   791.6    0.00       0    999.0  147.6
 204   22:00   53.6    42    0.7   138      1.5   791.6    0.00       0    999.0   59.7
 204   22:10   53.8    42    1.1   144      1.8   791.6    0.00       0    999.0   16.9
 204   22:20   53.6    43    1.0   139      1.5   791.6    0.00       0    999.0   16.6
 204   22:30   53.4    45    1.1   133      1.5   791.7    0.00       0    999.0   16.8
 204   22:40   53.4    46    1.1   130      1.6   791.6    0.00       0    999.0   17.1
 204   22:50   53.5    41    1.0   152      2.0   791.6    0.00       0    999.0   17.5
 204   23:00   53.7    41    1.3   158      2.0   791.7    0.00       0    999.0   17.3
 204   23:10   53.9    41    1.7   156      3.0   791.7    0.00       0    999.0   17.2
 204   23:20   53.8    41    1.1   142      2.1   791.7    0.00       0    999.0   17.1
 204   23:30   53.7    41    1.7   137      2.5   791.7    0.00       0    999.0   17.1

Return to Alpha graphs page.


Western Regional Climate Center,wrcc@dri.edu